Time;durP1;ratioP1;P1;durP2;ratioP2;P2;SDS_P1;SDS_P2;PMS_P1;PMS_P2;Temp;Humidity;BMP_temperature;BMP_pressure;BME280_temperature;BME280_humidity;BME280_pressure;Samples;Min_cycle;Max_cycle;Signal;HPM_P1;HPM_P2
2023/06/10 00:00:55;;;;;;;2.28;1.25;;;;;;;24.67;42.40;100776.19;5162382;28;20066;-85
2023/06/10 00:03:46;;;;;;;2.55;1.00;;;;;;;24.63;42.29;100772.03;5142490;28;20154;-86
2023/06/10 00:06:37;;;;;;;8.20;1.55;;;;;;;24.60;42.67;100779.50;5156439;28;20130;-84
2023/06/10 00:09:29;;;;;;;1.13;0.90;;;;;;;24.55;42.27;100768.31;5154791;28;20050;-85
2023/06/10 00:12:20;;;;;;;0.88;0.88;;;;;;;24.54;42.47;100777.34;5158496;28;20480;-85
2023/06/10 00:15:10;;;;;;;0.57;0.57;;;;;;;24.47;42.43;100774.34;5153103;28;20554;-84
2023/06/10 00:18:03;;;;;;;1.05;1.05;;;;;;;24.43;42.51;100773.75;5171854;28;20041;-86
2023/06/10 00:20:54;;;;;;;0.80;0.73;;;;;;;24.40;42.55;100779.38;5135703;28;20034;-85
2023/06/10 00:23:45;;;;;;;1.23;1.13;;;;;;;24.38;42.71;100778.66;5155088;28;20291;-84
2023/06/10 00:26:36;;;;;;;1.42;1.33;;;;;;;24.33;42.79;100780.91;5158235;28;20570;-85
2023/06/10 00:29:27;;;;;;;0.85;0.57;;;;;;;24.29;42.80;100784.81;5160926;28;20069;-85
2023/06/10 00:32:17;;;;;;;0.70;0.70;;;;;;;24.30;43.13;100781.97;5171685;28;20037;-85
2023/06/10 00:35:08;;;;;;;1.83;1.60;;;;;;;24.27;43.04;100784.06;5171564;28;20034;-84
2023/06/10 00:37:59;;;;;;;0.70;0.70;;;;;;;24.22;43.45;100788.97;5141732;28;20085;-86
2023/06/10 00:40:50;;;;;;;0.70;0.70;;;;;;;24.20;43.36;100784.59;5159774;28;21065;-85
2023/06/10 00:43:41;;;;;;;0.90;0.77;;;;;;;24.15;43.41;100788.63;5140883;28;20570;-84
2023/06/10 00:46:33;;;;;;;1.10;1.00;;;;;;;24.13;43.35;100786.09;5153240;28;20045;-85
2023/06/10 00:49:24;;;;;;;11.40;1.85;;;;;;;24.10;43.52;100791.69;5143079;28;20122;-86
2023/06/10 00:52:17;;;;;;;0.57;0.57;;;;;;;24.08;43.83;100787.44;5144374;28;20029;-85
2023/06/10 00:55:07;;;;;;;1.02;0.85;;;;;;;24.02;43.52;100791.50;5154431;28;20076;-85
2023/06/10 00:57:59;;;;;;;0.85;0.85;;;;;;;23.94;43.66;100792.13;5158938;28;20041;-84
2023/06/10 01:00:51;;;;;;;0.77;0.77;;;;;;;23.93;43.77;100789.53;5150966;28;20057;-86
2023/06/10 01:03:42;;;;;;;2.70;1.17;;;;;;;23.86;43.92;100790.03;5169983;28;20086;-84
2023/06/10 01:06:55;;;;;;;1.40;1.10;;;;;;;23.81;43.91;100786.91;5160654;28;20042;-85
2023/06/10 01:09:53;;;;;;;0.98;0.98;;;;;;;23.74;44.03;100786.56;5172733;28;20422;-84
2023/06/10 01:12:56;;;;;;;0.90;0.90;;;;;;;23.67;44.64;100793.38;5190754;28;20081;-86
2023/06/10 01:15:47;;;;;;;0.70;0.70;;;;;;;23.68;44.16;100787.06;5177155;28;20026;-84
2023/06/10 01:18:38;;;;;;;0.90;0.90;;;;;;;23.64;44.17;100785.59;5168014;28;20203;-85
2023/06/10 01:21:30;;;;;;;0.50;0.50;;;;;;;23.61;44.63;100788.53;5145389;28;20041;-85
2023/06/10 01:24:21;;;;;;;0.98;0.90;;;;;;;23.57;44.70;100785.25;5156510;28;20060;-83
2023/06/10 01:27:17;;;;;;;0.40;0.40;;;;;;;23.53;44.70;100791.84;5160661;28;20057;-86
2023/06/10 01:30:17;;;;;;;1.30;1.20;;;;;;;23.49;44.62;100789.53;5156207;28;20038;-85
2023/06/10 01:33:10;;;;;;;0.85;0.55;;;;;;;23.44;44.99;100784.53;5139431;28;20042;-85
2023/06/10 01:36:03;;;;;;;0.90;0.90;;;;;;;23.43;45.18;100788.19;5171210;28;20109;-85
2023/06/10 01:38:57;;;;;;;0.73;0.73;;;;;;;23.39;45.01;100792.09;5161130;28;20057;-85
2023/06/10 01:41:49;;;;;;;9.57;1.05;;;;;;;23.35;44.70;100787.94;5152770;28;20131;-85
2023/06/10 01:44:40;;;;;;;0.85;0.85;;;;;;;23.32;45.44;100797.09;5166975;28;20034;-84
2023/06/10 01:47:31;;;;;;;0.50;0.50;;;;;;;23.23;44.75;100790.66;5166730;28;20035;-85
2023/06/10 01:50:22;;;;;;;1.02;0.93;;;;;;;23.22;45.24;100791.63;5159075;28;20037;-85
2023/06/10 01:53:13;;;;;;;0.50;0.50;;;;;;;23.18;45.45;100792.81;5151780;28;20023;-85
2023/06/10 01:56:04;;;;;;;0.50;0.50;;;;;;;23.15;45.44;100790.38;5168115;28;20034;-85
2023/06/10 01:58:58;;;;;;;0.50;0.50;;;;;;;23.03;45.58;100802.91;5155699;28;20629;-85
2023/06/10 02:01:49;;;;;;;0.68;0.68;;;;;;;23.01;45.18;100804.00;5157631;28;20658;-84
2023/06/10 02:04:40;;;;;;;0.93;0.77;;;;;;;22.94;45.23;100808.97;5168588;28;20042;-85
2023/06/10 02:07:31;;;;;;;0.93;0.93;;;;;;;22.94;45.87;100807.13;5150845;28;20041;-84
2023/06/10 02:10:21;;;;;;;3.20;1.27;;;;;;;22.97;46.09;100807.88;5164581;28;20081;-85
2023/06/10 02:13:12;;;;;;;1.05;1.02;;;;;;;22.93;45.73;100808.09;5175536;28;20089;-84
2023/06/10 02:16:03;;;;;;;0.93;0.93;;;;;;;22.87;46.07;100808.59;5175568;28;20030;-85
2023/06/10 02:18:54;;;;;;;9.48;1.85;;;;;;;22.84;45.83;100806.19;5166457;28;20102;-84
2023/06/10 02:21:45;;;;;;;0.75;0.75;;;;;;;22.81;46.23;100809.09;5173724;28;20040;-84
2023/06/10 02:24:39;;;;;;;2.17;1.67;;;;;;;22.77;46.53;100803.13;5178759;28;20053;-84
2023/06/10 02:27:30;;;;;;;1.55;1.38;;;;;;;22.73;46.24;100812.34;5190061;28;20018;-84
2023/06/10 02:30:21;;;;;;;1.15;1.05;;;;;;;22.66;46.58;100813.78;5189332;28;20058;-85
2023/06/10 02:33:12;;;;;;;0.60;0.60;;;;;;;22.65;46.48;100812.06;5162108;28;20026;-85
2023/06/10 02:36:03;;;;;;;1.00;0.93;;;;;;;22.60;46.67;100809.75;5162215;28;20034;-85
2023/06/10 02:38:54;;;;;;;0.45;0.45;;;;;;;22.55;46.90;100816.44;5172399;28;20044;-85
2023/06/10 02:41:45;;;;;;;0.93;0.88;;;;;;;22.50;46.68;100815.94;5154406;28;20065;-86
2023/06/10 02:44:35;;;;;;;1.35;1.08;;;;;;;22.48;47.18;100819.56;5158178;28;20061;-84
2023/06/10 02:47:26;;;;;;;1.90;0.80;;;;;;;22.45;46.96;100818.94;5161488;28;20307;-86
2023/06/10 02:50:17;;;;;;;1.40;1.30;;;;;;;22.39;46.75;100816.72;5166783;28;20053;-85
2023/06/10 02:53:08;;;;;;;1.33;1.23;;;;;;;22.32;46.82;100819.84;5155402;28;20029;-85
2023/06/10 02:55:59;;;;;;;1.30;1.05;;;;;;;22.25;46.95;100829.31;5158985;28;20627;-86
2023/06/10 02:58:51;;;;;;;0.75;0.70;;;;;;;22.21;47.04;100827.81;5158538;28;20026;-85
2023/06/10 03:01:42;;;;;;;1.48;1.05;;;;;;;22.15;46.87;100826.44;5156960;28;20038;-86
2023/06/10 03:04:33;;;;;;;0.82;0.82;;;;;;;22.11;47.07;100827.66;5150373;28;20156;-85
2023/06/10 03:07:24;;;;;;;0.98;0.95;;;;;;;22.07;47.33;100825.31;5158475;28;20033;-85
2023/06/10 03:10:15;;;;;;;0.90;0.90;;;;;;;22.02;46.90;100821.16;5152817;28;20808;-85
2023/06/10 03:13:05;;;;;;;1.00;0.98;;;;;;;21.99;46.95;100824.09;5167845;28;20026;-85
2023/06/10 03:15:56;;;;;;;0.82;0.82;;;;;;;21.96;47.54;100824.28;5159056;28;20050;-85
2023/06/10 03:18:48;;;;;;;1.60;1.50;;;;;;;21.87;47.64;100822.28;5150568;28;20042;-83
2023/06/10 03:21:41;;;;;;;1.23;1.13;;;;;;;21.90;47.98;100818.56;5166623;28;20049;-85
2023/06/10 03:24:32;;;;;;;4.85;1.13;;;;;;;21.90;48.33;100819.41;5143026;28;20041;-85
2023/06/10 03:27:23;;;;;;;0.43;0.43;;;;;;;21.88;47.87;100824.00;5158084;28;20914;-85
2023/06/10 03:30:14;;;;;;;1.25;1.15;;;;;;;21.82;47.99;100827.13;5154702;28;20066;-86
2023/06/10 03:33:05;;;;;;;1.52;1.42;;;;;;;21.82;48.25;100838.66;5163754;28;20030;-84
2023/06/10 03:35:55;;;;;;;0.60;0.60;;;;;;;21.75;48.34;100836.56;5161766;28;20033;-86
2023/06/10 03:38:46;;;;;;;0.80;0.70;;;;;;;21.73;48.34;100835.81;5148849;28;20025;-86
2023/06/10 03:41:37;;;;;;;1.92;1.83;;;;;;;21.71;48.35;100841.28;5155309;28;20042;-84
2023/06/10 03:44:28;;;;;;;2.83;1.75;;;;;;;21.62;48.61;100833.91;5143923;28;20443;-84
2023/06/10 03:47:19;;;;;;;1.38;1.27;;;;;;;21.62;48.59;100844.59;5158617;28;20033;-85
2023/06/10 03:50:10;;;;;;;1.10;1.08;;;;;;;21.61;48.65;100842.91;5154892;28;20038;-85
2023/06/10 03:53:00;;;;;;;1.27;1.10;;;;;;;21.56;48.36;100845.84;5172117;28;20037;-85
2023/06/10 03:55:51;;;;;;;1.08;1.08;;;;;;;21.54;48.94;100842.44;5154879;28;20035;-85
2023/06/10 03:58:42;;;;;;;1.98;1.52;;;;;;;21.48;48.29;100837.53;5158804;28;20030;-86
2023/06/10 04:01:34;;;;;;;1.60;1.50;;;;;;;21.48;49.08;100840.22;5154712;28;20041;-85
2023/06/10 04:04:25;;;;;;;4.95;1.77;;;;;;;21.44;48.73;100841.41;5173587;28;20089;-86
2023/06/10 04:07:16;;;;;;;2.17;1.13;;;;;;;21.43;49.19;100842.38;5163169;28;20026;-84
2023/06/10 04:10:07;;;;;;;1.17;1.15;;;;;;;21.39;49.29;100855.91;5159980;28;20046;-84
2023/06/10 04:12:58;;;;;;;0.50;0.50;;;;;;;21.36;49.54;100850.78;5180197;28;20082;-85
2023/06/10 04:15:49;;;;;;;0.52;0.52;;;;;;;21.34;49.26;100850.06;5163565;28;20030;-83
2023/06/10 04:18:39;;;;;;;0.57;0.57;;;;;;;21.33;49.35;100845.69;5166050;28;20050;-87
2023/06/10 04:21:30;;;;;;;1.08;1.05;;;;;;;21.31;49.63;100855.59;5164188;28;20034;-84
2023/06/10 04:24:21;;;;;;;1.02;0.70;;;;;;;21.29;49.86;100860.19;5162901;28;20042;-84
2023/06/10 04:27:12;;;;;;;0.70;0.60;;;;;;;21.26;50.32;100852.44;5160012;28;20034;-85
2023/06/10 04:30:04;;;;;;;2.00;1.33;;;;;;;21.23;49.30;100864.16;5173868;28;20038;-85
2023/06/10 04:32:54;;;;;;;1.27;1.17;;;;;;;21.22;49.95;100862.47;5161232;28;20025;-86
2023/06/10 04:35:47;;;;;;;0.77;0.65;;;;;;;21.23;50.39;100865.97;5163351;28;20109;-86
2023/06/10 04:38:38;;;;;;;0.93;0.88;;;;;;;21.22;50.35;100866.94;5161343;28;20030;-85
2023/06/10 04:41:28;;;;;;;1.02;1.00;;;;;;;21.20;49.97;100860.84;5156600;28;20555;-87
2023/06/10 04:44:19;;;;;;;6.43;2.05;;;;;;;21.18;50.24;100866.28;5159411;28;20033;-86
2023/06/10 04:47:10;;;;;;;2.70;1.70;;;;;;;21.21;50.30;100857.22;5162034;28;20018;-85
2023/06/10 04:50:02;;;;;;;1.48;1.38;;;;;;;21.20;50.54;100860.84;5162430;28;20034;-85
2023/06/10 04:52:52;;;;;;;1.35;0.93;;;;;;;21.17;50.19;100866.41;5158701;28;20030;-85
2023/06/10 04:55:43;;;;;;;0.90;0.82;;;;;;;21.19;50.55;100856.50;5165480;28;20892;-85
2023/06/10 04:58:34;;;;;;;1.75;0.85;;;;;;;21.16;50.49;100856.69;5177838;28;20021;-84
2023/06/10 05:01:26;;;;;;;1.20;1.15;;;;;;;21.09;50.72;100863.41;5163888;28;20026;-85
2023/06/10 05:04:16;;;;;;;1.65;1.52;;;;;;;21.12;50.50;100861.38;5174780;28;20041;-90
2023/06/10 05:07:07;;;;;;;0.95;0.70;;;;;;;21.13;50.58;100854.22;5161625;28;20049;-87
2023/06/10 05:10:01;;;;;;;1.55;1.20;;;;;;;21.16;50.95;100860.19;5160276;28;20048;-86
2023/06/10 05:12:52;;;;;;;0.77;0.77;;;;;;;21.11;50.96;100853.50;5157469;28;20034;-86
2023/06/10 05:15:44;;;;;;;13.60;1.58;;;;;;;21.10;51.01;100857.97;5175687;28;20043;-87
2023/06/10 05:18:35;;;;;;;1.42;1.10;;;;;;;21.09;51.91;100874.09;5145661;28;20026;-87
2023/06/10 05:21:26;;;;;;;0.77;0.77;;;;;;;20.98;51.84;100870.34;5157498;28;20038;-88
2023/06/10 05:24:17;;;;;;;1.30;1.23;;;;;;;21.07;51.10;100864.38;5151267;28;20157;-86
2023/06/10 05:27:08;;;;;;;0.90;0.90;;;;;;;21.07;51.57;100863.53;5151722;28;20073;-86
2023/06/10 05:29:59;;;;;;;0.40;0.40;;;;;;;21.14;52.07;100864.81;5164968;28;20062;-88
2023/06/10 05:32:51;;;;;;;0.73;0.73;;;;;;;21.15;51.82;100865.66;5163152;28;20038;-90
2023/06/10 05:35:42;;;;;;;0.90;0.90;;;;;;;21.12;51.32;100871.19;5133106;28;20035;-89
2023/06/10 05:38:32;;;;;;;1.73;1.63;;;;;;;21.15;52.83;100861.19;5163152;28;20034;-89
2023/06/10 05:41:23;;;;;;;1.58;1.48;;;;;;;21.15;52.20;100865.66;5137547;28;20034;-90
2023/06/10 05:44:14;;;;;;;0.70;0.70;;;;;;;21.15;52.20;100863.84;5153965;28;20022;-83
2023/06/10 05:47:05;;;;;;;1.05;1.00;;;;;;;21.09;53.15;100872.25;5170338;28;20093;-86
2023/06/10 05:49:56;;;;;;;1.65;1.55;;;;;;;21.15;52.32;100876.31;5158431;28;20054;-91
2023/06/10 05:52:47;;;;;;;0.90;0.85;;;;;;;21.18;51.98;100870.78;5166075;28;20680;-89
2023/06/10 05:55:38;;;;;;;0.95;0.93;;;;;;;21.07;54.40;100874.19;5143552;28;20038;-90
2023/06/10 05:58:28;;;;;;;0.88;0.88;;;;;;;21.21;52.79;100875.88;5152717;28;20031;-93
2023/06/10 06:01:19;;;;;;;0.77;0.77;;;;;;;21.21;53.49;100870.56;5154450;28;20151;-91
2023/06/10 06:04:10;;;;;;;1.55;1.13;;;;;;;21.19;54.42;100875.16;5151109;28;20386;-93
2023/06/10 06:07:01;;;;;;;1.33;1.23;;;;;;;21.21;54.53;100870.56;5157206;28;20134;-91
2023/06/10 06:09:52;;;;;;;1.05;0.68;;;;;;;21.28;53.05;100877.16;5153123;28;20044;-91
2023/06/10 06:12:42;;;;;;;1.23;0.85;;;;;;;21.34;52.86;100873.22;5135720;28;20030;-90
2023/06/10 06:15:33;;;;;;;1.45;0.98;;;;;;;21.37;52.33;100871.19;5165354;28;20105;-90
2023/06/10 06:18:24;;;;;;;3.97;2.13;;;;;;;21.37;52.92;100871.19;5143037;28;20105;-91
2023/06/10 06:21:15;;;;;;;1.13;1.02;;;;;;;21.38;55.13;100870.22;5158788;28;20073;-95
2023/06/10 06:24:06;;;;;;;1.23;1.15;;;;;;;21.46;53.73;100879.50;5174302;28;20102;-94
2023/06/10 06:26:57;;;;;;;0.90;0.90;;;;;;;21.56;53.29;100877.91;5175515;28;20022;-93
2023/06/10 06:29:47;;;;;;;1.67;1.15;;;;;;;21.46;54.22;100879.50;5154737;28;20038;-93
2023/06/10 06:32:38;;;;;;;5.88;1.15;;;;;;;21.57;52.57;100879.59;5167977;28;20027;-92
2023/06/10 06:35:35;;;;;;;0.50;0.50;;;;;;;21.60;54.22;100884.78;5166129;28;20078;-91
2023/06/10 06:38:26;;;;;;;2.40;2.08;;;;;;;21.58;53.51;100880.47;5158130;28;20058;-91
2023/06/10 06:41:17;;;;;;;1.13;1.05;;;;;;;21.67;53.66;100880.69;5134499;28;20042;-93
2023/06/10 06:44:08;;;;;;;1.40;1.27;;;;;;;21.65;53.19;100879.94;5141641;28;20540;-91
2023/06/10 06:46:58;;;;;;;1.45;1.35;;;;;;;21.70;53.52;100887.63;5152130;28;20058;-93
2023/06/10 06:49:49;;;;;;;0.50;0.50;;;;;;;21.84;53.01;100878.63;5141907;28;20038;-92
2023/06/10 06:52:40;;;;;;;1.20;1.10;;;;;;;21.81;54.56;100886.84;5145491;28;20037;-91
2023/06/10 06:55:31;;;;;;;1.55;1.45;;;;;;;21.80;53.09;100885.13;5135826;28;20198;-91
2023/06/10 06:58:21;;;;;;;0.50;0.50;;;;;;;21.82;53.34;100886.72;5150171;28;20030;-92
2023/06/10 07:01:12;;;;;;;0.50;0.50;;;;;;;21.88;53.91;100890.78;5166678;28;20039;-92
2023/06/10 07:04:03;;;;;;;1.30;1.23;;;;;;;21.97;52.65;100898.13;5142214;28;20029;-92
2023/06/10 07:06:54;;;;;;;1.73;1.60;;;;;;;21.97;51.98;100894.63;5155329;28;20462;-91
2023/06/10 07:09:44;;;;;;;1.10;1.08;;;;;;;22.08;52.37;100892.00;5175501;28;20046;-91
2023/06/10 07:12:35;;;;;;;0.60;0.60;;;;;;;22.14;52.34;100894.25;5154447;28;20072;-91
2023/06/10 07:15:26;;;;;;;0.88;0.50;;;;;;;22.12;51.63;100901.50;5147587;28;20465;-90
2023/06/10 07:18:17;;;;;;;0.60;0.60;;;;;;;22.19;52.25;100901.06;5153525;28;20058;-91
2023/06/10 07:21:08;;;;;;;0.82;0.82;;;;;;;22.15;50.91;100897.75;5141344;28;20042;-91
2023/06/10 07:23:58;;;;;;;0.40;0.40;;;;;;;22.20;50.96;100898.25;5153672;28;20034;-93
2023/06/10 07:26:50;;;;;;;1.08;0.98;;;;;;;22.28;50.14;100901.22;5168382;28;20022;-96
2023/06/10 07:29:41;;;;;;;1.52;1.17;;;;;;;22.33;51.09;100890.19;5148090;28;20053;-91
2023/06/10 07:32:32;;;;;;;2.10;1.17;;;;;;;22.26;51.21;100900.50;5142657;28;20048;-91
2023/06/10 07:35:22;;;;;;;2.95;1.98;;;;;;;22.32;50.69;100897.38;5167355;28;20037;-91
2023/06/10 07:38:14;;;;;;;1.02;1.02;;;;;;;22.44;50.24;100897.44;5155501;28;20023;-93
2023/06/10 07:41:08;;;;;;;0.60;0.60;;;;;;;22.47;50.19;100891.88;5160101;28;20053;-94
2023/06/10 07:44:22;;;;;;;2.00;1.10;;;;;;;22.47;49.97;100898.09;5182581;28;20057;-93
2023/06/10 07:47:42;;;;;;;2.58;1.33;;;;;;;22.60;49.97;100892.66;5173588;28;20053;-94
2023/06/10 07:50:39;;;;;;;1.08;1.08;;;;;;;22.68;49.31;100897.44;5160336;28;20425;-94
2023/06/10 07:53:30;;;;;;;;;;;;;;;22.73;49.31;100897.09;5145131;28;20478;-94
2023/06/10 07:56:44;;;;;;;1.55;1.15;;;;;;;22.59;48.96;100895.44;5147983;28;19968;-92
2023/06/10 07:59:35;;;;;;;1.13;1.05;;;;;;;22.71;49.74;100896.34;5156925;28;20038;-88
2023/06/10 08:02:26;;;;;;;1.30;1.20;;;;;;;22.74;49.52;100896.13;5151922;28;20025;-88
2023/06/10 08:05:17;;;;;;;1.05;1.00;;;;;;;22.83;49.05;100892.75;5167267;28;20425;-87
2023/06/10 08:08:08;;;;;;;0.90;0.90;;;;;;;22.93;48.33;100892.88;5148284;28;20058;-85
2023/06/10 08:10:58;;;;;;;0.77;0.77;;;;;;;22.93;48.45;100887.53;5153604;28;20939;-90
2023/06/10 08:13:49;;;;;;;0.50;0.50;;;;;;;22.99;48.51;100891.56;5170079;28;20069;-88
2023/06/10 08:16:40;;;;;;;0.90;0.90;;;;;;;23.10;48.50;100894.25;5169514;28;20046;-90
2023/06/10 08:19:31;;;;;;;2.28;0.88;;;;;;;23.15;48.15;100897.44;5160837;28;20038;-90
2023/06/10 08:22:22;;;;;;;0.85;0.85;;;;;;;23.13;48.84;100888.66;5154587;28;20054;-90
2023/06/10 08:25:12;;;;;;;1.38;1.10;;;;;;;23.29;47.59;100900.88;5138930;28;20092;-87
2023/06/10 08:28:03;;;;;;;1.35;0.82;;;;;;;23.32;47.94;100897.97;5139771;28;20076;-89
2023/06/10 08:30:54;;;;;;;2.35;2.15;;;;;;;23.36;47.91;100896.75;5156203;28;20121;-89
2023/06/10 08:33:44;;;;;;;0.93;0.93;;;;;;;23.41;48.24;100894.56;5175453;28;20057;-88
2023/06/10 08:36:35;;;;;;;1.02;0.95;;;;;;;23.61;46.51;100897.47;5149664;28;20383;-89
2023/06/10 08:39:26;;;;;;;1.10;0.98;;;;;;;23.52;46.71;100899.06;5142300;28;20030;-91
2023/06/10 08:42:45;;;;;;;0.63;0.63;;;;;;;23.60;47.08;100898.44;5157222;28;20038;-92
2023/06/10 08:45:48;;;;;;;0.70;0.70;;;;;;;23.67;46.57;100897.00;5157163;28;20038;-92
2023/06/10 08:48:44;;;;;;;0.95;0.95;;;;;;;23.76;45.61;100890.06;5157980;28;20029;-89
2023/06/10 08:51:36;;;;;;;1.30;1.20;;;;;;;23.69;46.65;100898.59;5146036;28;20693;-91
2023/06/10 08:54:31;;;;;;;0.45;0.45;;;;;;;23.74;46.60;100895.53;5141540;28;20714;-91
2023/06/10 08:57:22;;;;;;;1.42;1.33;;;;;;;23.80;46.86;100891.53;5153675;28;20022;-90
2023/06/10 09:00:15;;;;;;;0.93;0.60;;;;;;;23.97;45.98;100898.22;5153720;28;20072;-89
2023/06/10 09:03:08;;;;;;;0.80;0.80;;;;;;;23.98;46.20;100889.19;5152414;28;20122;-90
2023/06/10 09:05:59;;;;;;;0.63;0.63;;;;;;;24.08;45.52;100882.13;5144185;28;20035;-89
2023/06/10 09:08:50;;;;;;;1.40;1.30;;;;;;;24.15;45.94;100882.44;5150902;28;20050;-89
2023/06/10 09:11:44;;;;;;;1.08;1.00;;;;;;;24.14;45.96;100891.47;5142874;28;20045;-90
2023/06/10 09:14:35;;;;;;;0.52;0.50;;;;;;;24.22;46.67;100880.13;5156077;28;20057;-90
2023/06/10 09:17:27;;;;;;;1.67;1.13;;;;;;;24.45;44.91;100883.59;5152748;28;20030;-89
2023/06/10 09:20:18;;;;;;;1.50;1.40;;;;;;;24.43;45.38;100882.84;5162002;28;20438;-90
2023/06/10 09:23:09;;;;;;;1.30;1.02;;;;;;;24.42;44.91;100879.31;5158871;28;20084;-90
2023/06/10 09:26:00;;;;;;;0.90;0.90;;;;;;;24.51;44.78;100885.75;5155951;28;20030;-90
2023/06/10 09:28:51;;;;;;;0.77;0.77;;;;;;;24.60;45.03;100873.38;5152640;28;20030;-90
2023/06/10 09:31:43;;;;;;;3.13;1.83;;;;;;;24.81;44.49;100882.34;5148278;28;20124;-90
2023/06/10 09:34:36;;;;;;;0.88;0.88;;;;;;;24.84;44.58;100878.53;5160898;28;20030;-90
2023/06/10 09:37:27;;;;;;;0.75;0.75;;;;;;;24.90;43.98;100882.53;5154727;28;20030;-90
2023/06/10 09:40:17;;;;;;;0.65;0.65;;;;;;;24.82;44.38;100884.03;5158056;28;20034;-90
2023/06/10 09:43:11;;;;;;;1.02;1.02;;;;;;;24.98;44.20;100882.72;5153463;28;20034;-90
2023/06/10 09:46:02;;;;;;;0.55;0.55;;;;;;;25.16;42.50;100879.44;5138498;28;20557;-90
2023/06/10 09:48:52;;;;;;;1.45;0.80;;;;;;;25.02;43.68;100878.78;5155052;28;20195;-90
2023/06/10 09:51:54;;;;;;;0.80;0.80;;;;;;;25.09;43.85;100873.75;5156186;28;20042;-90
2023/06/10 09:54:45;;;;;;;1.27;1.15;;;;;;;25.10;44.54;100873.59;5155036;28;20045;-89
2023/06/10 09:57:36;;;;;;;1.45;1.17;;;;;;;25.17;42.74;100865.00;5140656;28;20030;-89
2023/06/10 10:00:32;;;;;;;0.60;0.60;;;;;;;25.28;43.51;100870.31;5147319;28;20050;-90
2023/06/10 10:03:23;;;;;;;1.85;0.90;;;;;;;25.34;42.65;100866.25;5170254;28;20018;-90
2023/06/10 10:06:15;;;;;;;0.50;0.50;;;;;;;25.25;42.31;100867.88;5151833;28;20674;-89
2023/06/10 10:09:06;;;;;;;1.07;1.07;;;;;;;25.48;42.55;100865.06;5145448;28;20271;-91
2023/06/10 10:12:00;;;;;;;0.75;0.75;;;;;;;25.64;41.95;100868.09;5173924;28;20656;-90
2023/06/10 10:14:52;;;;;;;9.43;3.35;;;;;;;25.59;42.77;100865.81;5139136;28;20046;-90
2023/06/10 10:17:52;;;;;;;0.57;0.57;;;;;;;25.60;42.20;100867.50;5169457;28;20699;-90
2023/06/10 10:20:49;;;;;;;1.48;1.38;;;;;;;25.74;42.36;100865.41;5147394;28;20066;-90
2023/06/10 10:23:58;;;;;;;0.52;0.52;;;;;;;25.92;41.73;100862.91;5145858;28;20046;-89
2023/06/10 10:26:50;;;;;;;1.13;1.02;;;;;;;25.83;42.19;100861.91;5159552;28;20038;-91
2023/06/10 10:29:46;;;;;;;1.23;1.13;;;;;;;25.95;41.31;100862.66;5153024;28;20034;-90
2023/06/10 10:33:04;;;;;;;1.48;0.90;;;;;;;26.12;41.61;100854.91;5160123;28;20026;-91
2023/06/10 10:35:57;;;;;;;1.15;1.05;;;;;;;26.04;41.72;100859.13;5168312;28;20026;-90
2023/06/10 10:38:49;;;;;;;0.55;0.55;;;;;;;26.14;40.69;100850.25;5167192;28;20022;-89
2023/06/10 10:41:41;;;;;;;2.30;0.55;;;;;;;26.14;42.11;100852.94;5175122;28;20253;-89
2023/06/10 10:44:32;;;;;;;4.93;1.05;;;;;;;26.29;42.81;100848.84;5181196;28;20022;-91
2023/06/10 10:47:29;;;;;;;0.43;0.43;;;;;;;26.40;42.60;100846.00;5177943;28;20024;-90
2023/06/10 10:50:20;;;;;;;0.50;0.50;;;;;;;26.40;43.18;100842.47;5171442;28;20042;-90
2023/06/10 10:53:19;;;;;;;1.02;0.95;;;;;;;26.65;40.30;100845.56;5178969;28;20398;-89
2023/06/10 10:56:15;;;;;;;1.88;1.00;;;;;;;26.62;41.62;100841.31;5159065;28;20621;-90
2023/06/10 10:59:07;;;;;;;0.93;0.68;;;;;;;27.01;39.86;100835.88;5148775;28;20241;-90
2023/06/10 11:01:58;;;;;;;2.50;0.98;;;;;;;26.93;40.97;100829.53;5159602;28;20105;-90
2023/06/10 11:04:49;;;;;;;0.80;0.80;;;;;;;26.97;41.23;100834.50;5151897;28;20067;-90
2023/06/10 11:07:40;;;;;;;0.32;0.32;;;;;;;27.00;39.76;100826.09;5161979;28;20047;-90
2023/06/10 11:10:33;;;;;;;1.65;1.45;;;;;;;26.99;41.48;100827.09;5161122;28;20034;-90
2023/06/10 11:13:26;;;;;;;0.57;0.57;;;;;;;27.13;40.99;100820.38;5163546;28;20037;-90
2023/06/10 11:16:19;;;;;;;;;;;;;;;27.30;41.32;100818.78;5141780;28;20034;-91
2023/06/10 11:19:37;;;;;;;0.50;0.50;;;;;;;27.37;40.80;100823.56;5163745;28;19936;-90
2023/06/10 11:22:28;;;;;;;0.52;0.52;;;;;;;27.41;39.18;100816.84;5161266;28;20129;-90
2023/06/10 11:25:38;;;;;;;0.68;0.68;;;;;;;27.22;40.05;100821.34;5172201;28;20109;-90
2023/06/10 11:28:29;;;;;;;0.73;0.65;;;;;;;27.33;40.16;100814.94;5159647;28;20509;-91
2023/06/10 11:31:25;;;;;;;0.50;0.50;;;;;;;27.28;38.72;100814.50;5162022;28;20066;-90
2023/06/10 11:34:23;;;;;;;0.90;0.70;;;;;;;27.28;39.92;100819.88;5157848;28;20053;-90
2023/06/10 11:37:15;;;;;;;0.70;0.70;;;;;;;27.26;39.23;100811.97;5156168;28;20022;-93
2023/06/10 11:40:06;;;;;;;0.77;0.77;;;;;;;27.24;38.30;100819.34;5146099;28;20274;-91
2023/06/10 11:42:58;;;;;;;1.45;0.80;;;;;;;27.22;39.59;100809.72;5155717;28;20044;-92
2023/06/10 11:45:54;;;;;;;0.93;0.88;;;;;;;27.15;39.21;100810.31;5167297;28;20034;-90
2023/06/10 11:48:53;;;;;;;1.48;0.98;;;;;;;27.11;40.27;100813.47;5160408;28;20116;-90
2023/06/10 11:51:49;;;;;;;3.63;1.20;;;;;;;27.20;39.85;100812.56;5156328;28;20053;-91
2023/06/10 11:54:39;;;;;;;0.60;0.60;;;;;;;27.22;40.19;100812.41;5157211;28;20034;-90
2023/06/10 11:57:34;;;;;;;0.95;0.82;;;;;;;27.32;39.57;100807.84;5162705;28;20049;-91
2023/06/10 12:00:25;;;;;;;0.68;0.68;;;;;;;27.21;38.56;100802.63;5163319;28;20030;-91
2023/06/10 12:03:16;;;;;;;0.98;0.98;;;;;;;27.13;40.26;100809.63;5166291;28;20026;-90
2023/06/10 12:06:07;;;;;;;2.05;1.90;;;;;;;27.15;39.65;100806.75;5166108;28;20137;-90
2023/06/10 12:08:58;;;;;;;3.88;1.17;;;;;;;27.21;40.61;100800.81;5157906;28;20025;-90
2023/06/10 12:12:02;;;;;;;2.92;1.70;;;;;;;27.17;40.49;100800.25;5158546;28;20033;-90
2023/06/10 12:15:02;;;;;;;1.10;0.63;;;;;;;27.38;39.51;100793.75;5160238;28;20100;-90
2023/06/10 12:17:53;;;;;;;0.43;0.43;;;;;;;27.42;39.45;100794.31;5159658;28;20026;-90
2023/06/10 12:20:44;;;;;;;0.73;0.73;;;;;;;27.83;37.75;100797.50;5136022;28;20117;-90
2023/06/10 12:23:35;;;;;;;0.63;0.63;;;;;;;27.82;38.85;100786.88;5145660;28;20049;-92
2023/06/10 12:26:46;;;;;;;0.40;0.40;;;;;;;27.84;38.70;100785.72;5168011;28;20038;-93
2023/06/10 12:29:51;;;;;;;0.40;0.40;;;;;;;27.96;36.24;100783.63;5166871;28;20038;-92
2023/06/10 12:32:43;;;;;;;0.45;0.45;;;;;;;28.07;36.43;100779.88;5171173;28;20038;-90
2023/06/10 12:35:34;;;;;;;0.50;0.50;;;;;;;28.16;35.44;100781.66;5182543;28;20026;-92
2023/06/10 12:38:28;;;;;;;1.42;1.00;;;;;;;28.15;37.58;100779.94;5178560;28;20031;-93
2023/06/10 12:41:19;;;;;;;1.23;1.05;;;;;;;28.16;37.52;100781.66;5177042;28;20118;-93
2023/06/10 12:44:10;;;;;;;0.82;0.82;;;;;;;28.17;35.22;100788.75;5160941;28;20057;-92
2023/06/10 12:47:12;;;;;;;2.60;1.73;;;;;;;28.19;35.48;100781.34;5168304;28;20023;-92
2023/06/10 12:50:04;;;;;;;0.57;0.50;;;;;;;28.18;36.30;100776.94;5154227;28;20050;-90
2023/06/10 12:52:54;;;;;;;1.23;1.07;;;;;;;28.18;35.89;100785.03;5170339;28;20515;-89
2023/06/10 12:55:46;;;;;;;0.60;0.60;;;;;;;28.16;35.22;100781.66;5154872;28;20482;-89
2023/06/10 12:58:37;;;;;;;0.75;0.75;;;;;;;28.16;36.12;100786.22;5140257;28;20069;-92
2023/06/10 13:01:27;;;;;;;0.75;0.68;;;;;;;28.14;36.48;100778.25;5151405;28;20041;-90
2023/06/10 13:04:21;;;;;;;1.05;0.82;;;;;;;28.10;34.41;100782.28;5165382;28;20061;-90
2023/06/10 13:07:12;;;;;;;0.40;0.40;;;;;;;28.19;36.62;100777.78;5153557;28;20440;-90
2023/06/10 13:10:03;;;;;;;0.45;0.45;;;;;;;28.31;37.24;100773.00;5156765;28;20026;-91
2023/06/10 13:12:54;;;;;;;0.57;0.57;;;;;;;28.66;36.32;100776.63;5150086;28;20036;-91
2023/06/10 13:15:45;;;;;;;1.85;1.45;;;;;;;28.58;37.54;100770.16;5151448;28;20129;-91
2023/06/10 13:18:38;;;;;;;0.95;0.60;;;;;;;28.77;35.24;100768.28;5158377;28;20030;-90
2023/06/10 13:21:28;;;;;;;;;;;;;;;29.03;36.17;100762.84;5143370;28;20088;-91
2023/06/10 13:24:20;;;;;;;0.52;0.52;;;;;;;29.14;35.32;100761.69;5160997;28;19909;-90